Arcata, CA

12:30 PM PST on December 10, 2016 (GMT -0800)
1 Harpst Street, Arcata, CA 95521 | | Change Station

Elev 20 ft 40.87 °N, 124.08 °W | Updated 2 seconds ago

Overcast
Overcast
50.5 °F
Feels Like 50.5 °F
N
0.0
Wind Variable Wind from East
Gusts 0.0 mph

Today
High -- | Low -- °F
--% Chance of Precip.
Yesterday
High -- | Low -- °F
Precip. -- in
Pressure 30.09 in
Visibility 10.0 miles
Clouds Scattered Clouds 2700 ft
Overcast 3500 ft
Dew Point 48 °F
Humidity 91%
Rainfall 0.50 in
Snow Depth Not available.
7:30 AM 4:48 PM
Waxing Gibbous, 86% visible
SPECI KACV 102025Z AUTO 06003KT 10SM SCT027 OVC035 11/09 A3009 RMK AO2 RAE16 P0001 T01060094
Pressure 30.09 in
Visibility 10.0 miles
Clouds Scattered Clouds 2700 ft
Overcast 3500 ft
Dew Point 48 °F
Humidity 91%
Rainfall 0.50 in
Snow Depth Not available.
7:30 AM 4:48 PM
Waxing Gibbous, 86% visible
SPECI KACV 102025Z AUTO 06003KT 10SM SCT027 OVC035 11/09 A3009 RMK AO2 RAE16 P0001 T01060094

10-Day Weather Forecast

Almanac

Astronomy

Dec. 10, 2016 Rise Set
Actual Time
Civil Twilight
Nautical Twilight
Astronomical Twilight
Moon
Length of Visible Light
Length of Day
Tomorrow will be .
, % of the Moon is Illuminated

Today's Extremes

State Highs State Lows

Community

WunderPhotos

Upload Photos

1,956,651 photos uploaded!

WunderBlog® & News

Nearby

Air Quality

  Air Quality AQ Index Pollutant
Not available.

Snow Depth

Station Depth Elevation

Earthquake Activity

City Distance Mag. Time & Date
Minimum magnitude displayed is 2.5.

Coastal Water Temperatures

Place Temperature

Stations

Nearby Weather Stations

Station Location Temp. Windchill Dew Point Humidity Wind Precip. Elev Updated Type
                   

Watches & Warnings

There are currently no watches in effect.